Terminal Aerodrome Forecast
Issued by NWS Pocatello, ID

Home | Current Version | Previous Version | Text Only | Print | Product List | Glossary On
Versions: 1 2 3 4 5 6 7 8 9 10 11 12 13 14 15 16 17 18 19 20 21 22
785
FTUS45 KPIH 230031 AAA
TAFPIH
TAF AMD
KPIH 230031Z 2301/2324 17015G25KT 4SM -SN SCT025 OVC035
     FM230300 19012G22KT 1SM -SN BR BKN010 OVC030
     FM230900 18011KT P6SM VCSH SCT015 BKN035
     FM231400 22012G22KT 5SM -SHSN BR SCT010 OVC020=

USA.gov is the U.S. government's official web portal to all federal, state and local government web resources and services.